Weather observations for the past three days for
Nuiqsut, Nuiqsut Airport
Imperial (Metric)
Date Time (akdt) Wind (mph) Vis. (mi.) Weather Sky Cond. Temperature (ºF) Relative Humidity Wind Chill (°F) Heat Index (°F) Pressure Precipitation (in)
Air Dwpt 6 hour altimeter (in) sea level (mb) 1 hr 3 hr 6 hr
Max. Min.
02 13:53 E 9 6.00 Overcast with Haze OVC007 28 21.9 78% 20 29.61 1002.7
02 12:53 E 10 6.00 Unknown Precip OVC006 27 21.9 81% 18 29.59 1002.1
02 11:53 E 13 6.00 Overcast with Haze OVC006 27 21 78% 17 29.57 1001.5
02 10:53 E 15 5.00 Fog/Mist OVC006 25 21 85% 13 29.56 1001.0
02 09:53 NE 17 4.00 Overcast with Haze OVC006 25 19.9 25 23 81% 13 29.54 1000.4
02 08:53 NE 17 4.00 Fog/Mist OVC005 24.1 19.9 84% 11 29.53 1000.1
02 07:53 NE 18 3.00 Overcast with Haze OVC005 24.1 19 81% 11 29.52 999.7
02 06:53 NE 17 5.00 Fog/Mist OVC006 24.1 19.9 84% 11 29.52 999.7
02 05:53 NE 15 G 24 5.00 Overcast with Haze OVC006 24.1 19 81% 12 29.52 999.7
02 04:53 E 22 2.50 Fog/Mist and Breezy OVC006 24.1 19.9 84% 10 29.52 999.8
02 03:53 NE 18 3.00 Unknown Precip Fog/Mist OVC006 24.1 19.9 25 21.9 84% 11 29.52 999.8
02 02:53 NE 20 6.00 Fog/Mist OVC006 24.1 19.9 84% 11 29.52 999.8
02 01:53 E 20 6.00 Fog/Mist OVC007 24.1 19.9 84% 11 29.53 1000.0
02 00:53 E 25 3.00 Overcast with Haze and Breezy OVC007 24.1 19 81% 9 29.53 1000.0
01 23:53 E 24 3.00 Overcast with Haze and Breezy OVC007 24.1 19 81% 9 29.55 1000.7
01 22:53 NE 23 3.00 Overcast with Haze and Breezy OVC008 23 18 81% 8 29.57 1001.3
01 21:53 E 20 G 30 2.50 Overcast with Haze OVC009 21.9 17.1 26.1 21.9 82% 8 29.59 1002.0
01 20:53 E 28 G 38 2.00 Overcast with Haze and Windy OVC009 23 18 81% 7 29.6 1002.4
01 19:53 E 31 1.25 Overcast with Haze and Windy BKN010 OVC075 23 18 81% 6 29.62 1003.1
01 18:53 E 28 1.25 Blowing Snow and Windy FEW008 23 18 81% 7 29.63 1003.3
01 17:53 E 29 G 37 1.25 Overcast with Haze and Windy SCT007 OVC070 25 19 78% 9 29.64 1003.6
01 16:53 E 25 2.00 Mostly Cloudy with Haze and Breezy BKN008 26.1 19.9 78% 12 29.66 1004.3
01 15:53 E 31 2.00 Mostly Cloudy with Haze and Windy BKN008 26.1 19.9 26.1 21.9 78% 10 29.68 1005.2
01 14:53 E 26 1.50 Mostly Cloudy with Haze and Windy BKN005 26.1 19.9 78% 11 29.7 1005.7
01 13:53 E 32 G 41 0.75 Blowing Snow and Windy OVC005 24.1 18 77% 7 29.7 1005.9
01 12:53 E 32 G 40 0.75 Blowing Snow and Windy BKN005 23 17.1 78% 6 29.72 1006.3
01 11:53 E 26 G 38 1.25 Mostly Cloudy with Haze and Windy BKN005 21.9 16 78% 6 29.74 1007.0
01 10:53 E 22 2.00 Mostly Cloudy with Haze and Breezy BKN006 21.9 16 78% 7 29.76 1007.8
01 09:53 E 25 2.50 Mostly Cloudy with Haze and Breezy BKN009 21.9 17.1 24.1 21.9 82% 6 29.78 1008.4
01 08:53 E 26 G 33 2.00 Mostly Cloudy with Haze and Windy BKN008 21.9 17.1 82% 6 29.8 1009.1
01 07:53 E 23 6.00 Mostly Cloudy with Haze and Breezy BKN010 23 18 81% 8 29.82 1009.8
01 06:53 E 22 5.00 Overcast with Haze and Breezy OVC009 23 18 81% 9 29.83 1010.3
01 05:53 E 20 9.00 Overcast OVC010 21.9 17.1 82% 8 29.85 1011.0
01 04:53 E 22 2.00 Unknown Precip Fog/Mist and Breezy OVC009 23 19 85% 9 29.87 1011.6
01 03:53 E 18 6.00 Unknown Precip OVC007 24.1 19 25 24.1 81% 11 29.89 1012.2
01 02:53 E 18 6.00 Unknown Precip Fog/Mist OVC010 24.1 19.9 84% 11 29.91 1012.9
01 01:53 E 16 8.00 Overcast OVC010 25 19.9 81% 13 29.93 1013.5
01 00:53 E 16 1.25 Light Snow Fog/Mist OVC008 25 21 85% 13 29.93 1013.7
30 23:53 NE 16 1.50 Fog/Mist OVC004 25 21 85% 13 29.94 1013.9
30 22:53 NE 13 2.50 Fog/Mist OVC004 25 21 85% 14 29.94 1014.1
30 21:53 NE 14 9.00 Overcast OVC006 26.1 21 27 26.1 81% 15 29.95 1014.3
30 20:53 E 15 10.00 Overcast OVC006 26.1 21 81% 15 29.96 1014.6
30 19:53 E 14 10.00 Overcast OVC006 26.1 21.9 84% 15 29.96 1014.6
30 18:53 E 12 10.00 Overcast OVC006 26.1 21.9 84% 16 29.97 1014.9
30 17:53 E 12 10.00 Overcast OVC007 27 21.9 81% 17 29.97 1015.0
30 16:53 E 13 10.00 Overcast OVC006 27 21.9 81% 17 29.98 1015.2
30 15:53 NE 13 6.00 Overcast with Haze OVC006 27 21.9 27 23 81% 17 29.98 1015.4
30 14:53 E 10 10.00 Overcast OVC007 27 21.9 81% 18 29.98 1015.4
30 13:53 NE 8 10.00 Overcast OVC005 26.1 21.9 84% 18 29.99 1015.4
30 12:53 NE 6 6.00 Fog/Mist OVC003 25 21 85% 19 29.98 1015.3
30 11:53 NE 8 2.50 Fog/Mist OVC003 24.1 19.9 84% 16 29.97 1015.0
30 10:53 NE 5 3.00 Fog/Mist OVC004 24.1 19.9 84% 19 29.97 1014.9
30 09:53 NE 7 0.75 Fog/Mist OVC003 23 19 23 10.9 85% 16 29.96 1014.8
30 08:53 NE 7 0.25 Unknown Precip OVC002 21.9 17.1 82% 14 29.96 1014.7
30 07:53 NE 5 0.25 Sky Obscured with Haze VV003 21 16 81% 15 29.97 1014.8
30 06:53 NE 5 1.25 Fog/Mist OVC002 19 15.1 84% 13 29.97 1014.8
30 05:53 NE 6 3.00 Unknown Precip Fog/Mist OVC003 16 12 84% 8 29.97 1014.8
30 04:53 N 5 5.00 Unknown Precip Fog/Mist OVC006 12 8.1 84% 5 29.97 1014.8
30 03:53 NE 3 0.25 Sky Obscured with Haze VV007 12 7 21 10.9 80% 29.97 1014.8
30 02:53 E 3 0.50 Freezing Fog VV002 12 8.1 84% 29.97 1014.9
30 01:53 NE 7 0.25 Sky Obscured with Haze VV001 12.9 8.1 81% 4 29.96 1014.7
30 00:53 E 5 0.15 Freezing Fog VV002 14 10 84% 7 29.97 1014.8
29 23:53 NE 6 0.75 Fog/Mist VV002 17.1 12.9 84% 10 29.97 1014.9
29 22:53 NE 5 8.00 Fair CLR 19 14 81% 13 29.97 1015.0
29 21:53 NE 6 10.00 Fair CLR 21 16 28 21 81% 14 29.97 1014.8
29 20:53 NE 6 10.00 Fair CLR 23 17.1 78% 17 29.97 1015.0
29 19:53 NE 5 10.00 Fair CLR 25 18 75% 20 29.98 1015.3
29 18:53 NE 5 10.00 Unknown Precip CLR 26.1 19 75% 21 29.99 1015.6
29 17:53 NE 5 10.00 Unknown Precip SCT018 27 19 72% 22 29.99 1015.7
29 16:53 E 3 10.00 Overcast OVC019 26.1 19.9 78% 30.01 1016.2
29 15:53 NE 5 10.00 Overcast OVC021 27 19.9 28.9 21.9 75% 22 30.01 1016.2
29 14:53 NE 3 10.00 Overcast OVC021 27 19.9 75% 30.01 1016.3
Date Time (akdt) Wind (mph) Vis. (mi.) Weather Sky Cond. Air Dwpt Max. Min. Relative Humidity Wind Chill (°F) Heat Index (°F) altimeter (in) sea level (mb) 1 hr 3 hr 6 hr
6 hour
Temperature (ºF) Pressure Precipitation (in)